sensor_id;sensor_type;location;lat;lon;timestamp;P1;durP1;ratioP1;P2;durP2;ratioP2
71174;SDS011;58876;51.994;4.472;2024-01-16T00:00:06;781.97;;;781.97;;
71174;SDS011;58876;51.994;4.472;2024-01-16T00:02:33;953.33;;;953.33;;
71174;SDS011;58876;51.994;4.472;2024-01-16T00:04:59;953.64;;;953.64;;
71174;SDS011;58876;51.994;4.472;2024-01-16T00:07:24;1209.99;;;1209.99;;
71174;SDS011;58876;51.994;4.472;2024-01-16T00:09:50;1416.20;;;1416.20;;
71174;SDS011;58876;51.994;4.472;2024-01-16T00:12:18;1083.71;;;1083.71;;
71174;SDS011;58876;51.994;4.472;2024-01-16T00:14:43;1284.96;;;1284.96;;
71174;SDS011;58876;51.994;4.472;2024-01-16T00:17:09;2477.42;;;2477.42;;
71174;SDS011;58876;51.994;4.472;2024-01-16T00:19:34;3166.28;;;3166.28;;
71174;SDS011;58876;51.994;4.472;2024-01-16T00:22:00;3166.67;;;3166.67;;
71174;SDS011;58876;51.994;4.472;2024-01-16T00:24:28;1781.08;;;1781.08;;
71174;SDS011;58876;51.994;4.472;2024-01-16T00:26:53;1474.59;;;1474.59;;
71174;SDS011;58876;51.994;4.472;2024-01-16T00:29:19;1772.95;;;1772.95;;
71174;SDS011;58876;51.994;4.472;2024-01-16T00:31:44;1666.11;;;1666.11;;
71174;SDS011;58876;51.994;4.472;2024-01-16T00:34:10;1553.79;;;1553.79;;
71174;SDS011;58876;51.994;4.472;2024-01-16T00:36:35;1496.48;;;1496.48;;
71174;SDS011;58876;51.994;4.472;2024-01-16T00:39:00;1782.43;;;1782.43;;
71174;SDS011;58876;51.994;4.472;2024-01-16T00:41:28;1798.60;;;1798.60;;
71174;SDS011;58876;51.994;4.472;2024-01-16T00:43:53;2385.50;;;2385.50;;
71174;SDS011;58876;51.994;4.472;2024-01-16T00:46:18;2835.36;;;2835.36;;
71174;SDS011;58876;51.994;4.472;2024-01-16T00:48:47;3299.48;;;3299.48;;
71174;SDS011;58876;51.994;4.472;2024-01-16T00:51:13;3879.62;;;3879.62;;
71174;SDS011;58876;51.994;4.472;2024-01-16T00:53:42;3172.05;;;3172.05;;
71174;SDS011;58876;51.994;4.472;2024-01-16T00:56:11;1690.02;;;1690.02;;
71174;SDS011;58876;51.994;4.472;2024-01-16T00:58:37;3124.18;;;3124.18;;
71174;SDS011;58876;51.994;4.472;2024-01-16T01:01:03;3357.20;;;3357.20;;
71174;SDS011;58876;51.994;4.472;2024-01-16T01:03:29;3786.56;;;3786.56;;
71174;SDS011;58876;51.994;4.472;2024-01-16T01:05:55;3996.82;;;3996.82;;
71174;SDS011;58876;51.994;4.472;2024-01-16T01:08:20;4203.06;;;4203.06;;
71174;SDS011;58876;51.994;4.472;2024-01-16T01:10:46;4233.97;;;4233.97;;
71174;SDS011;58876;51.994;4.472;2024-01-16T01:13:12;4116.27;;;4116.27;;
71174;SDS011;58876;51.994;4.472;2024-01-16T01:15:38;3604.26;;;3604.26;;
71174;SDS011;58876;51.994;4.472;2024-01-16T01:18:05;3365.52;;;3365.52;;
71174;SDS011;58876;51.994;4.472;2024-01-16T01:20:31;3357.53;;;3357.53;;
71174;SDS011;58876;51.994;4.472;2024-01-16T01:22:57;3361.03;;;3361.03;;
71174;SDS011;58876;51.994;4.472;2024-01-16T01:25:23;3681.46;;;3681.46;;
71174;SDS011;58876;51.994;4.472;2024-01-16T01:27:53;3858.96;;;3858.96;;
71174;SDS011;58876;51.994;4.472;2024-01-16T01:30:19;3803.56;;;3803.56;;
71174;SDS011;58876;51.994;4.472;2024-01-16T01:32:44;3854.27;;;3854.27;;
71174;SDS011;58876;51.994;4.472;2024-01-16T01:35:10;3740.44;;;3740.44;;
71174;SDS011;58876;51.994;4.472;2024-01-16T01:37:36;3806.53;;;3806.53;;
71174;SDS011;58876;51.994;4.472;2024-01-16T01:40:06;4085.64;;;4085.64;;
71174;SDS011;58876;51.994;4.472;2024-01-16T01:42:32;3989.53;;;3989.53;;
71174;SDS011;58876;51.994;4.472;2024-01-16T01:44:57;3632.29;;;3632.29;;
71174;SDS011;58876;51.994;4.472;2024-01-16T01:47:26;3112.57;;;3112.57;;
71174;SDS011;58876;51.994;4.472;2024-01-16T01:49:52;2993.21;;;2993.21;;
71174;SDS011;58876;51.994;4.472;2024-01-16T01:52:17;2594.20;;;2594.20;;
71174;SDS011;58876;51.994;4.472;2024-01-16T01:54:43;2326.45;;;2326.45;;
71174;SDS011;58876;51.994;4.472;2024-01-16T01:57:10;2235.96;;;2235.96;;
71174;SDS011;58876;51.994;4.472;2024-01-16T01:59:36;2269.67;;;2269.67;;
71174;SDS011;58876;51.994;4.472;2024-01-16T02:02:02;2258.26;;;2258.26;;
71174;SDS011;58876;51.994;4.472;2024-01-16T02:04:29;2309.06;;;2309.06;;
71174;SDS011;58876;51.994;4.472;2024-01-16T02:06:56;2641.99;;;2641.99;;
71174;SDS011;58876;51.994;4.472;2024-01-16T02:09:23;3000.01;;;3000.01;;
71174;SDS011;58876;51.994;4.472;2024-01-16T02:11:51;3668.88;;;3668.88;;
71174;SDS011;58876;51.994;4.472;2024-01-16T02:14:16;4031.77;;;4031.77;;
71174;SDS011;58876;51.994;4.472;2024-01-16T02:16:43;3793.35;;;3793.35;;
71174;SDS011;58876;51.994;4.472;2024-01-16T02:19:12;3857.57;;;3857.57;;
71174;SDS011;58876;51.994;4.472;2024-01-16T02:21:46;3513.45;;;3513.45;;
71174;SDS011;58876;51.994;4.472;2024-01-16T02:24:14;1540.81;;;1540.81;;
71174;SDS011;58876;51.994;4.472;2024-01-16T02:26:40;1591.68;;;1591.68;;
71174;SDS011;58876;51.994;4.472;2024-01-16T02:29:06;1873.87;;;1873.87;;
71174;SDS011;58876;51.994;4.472;2024-01-16T02:31:32;2403.20;;;2403.20;;
71174;SDS011;58876;51.994;4.472;2024-01-16T02:33:59;2355.43;;;2355.43;;
71174;SDS011;58876;51.994;4.472;2024-01-16T02:36:25;2116.75;;;2116.75;;
71174;SDS011;58876;51.994;4.472;2024-01-16T02:38:51;4625.78;;;4625.78;;
71174;SDS011;58876;51.994;4.472;2024-01-16T02:41:17;1812.20;;;1812.20;;
71174;SDS011;58876;51.994;4.472;2024-01-16T02:43:43;2048.48;;;2048.48;;
71174;SDS011;58876;51.994;4.472;2024-01-16T02:46:09;4885.78;;;4885.78;;
71174;SDS011;58876;51.994;4.472;2024-01-16T02:48:35;7199.17;;;7199.17;;
71174;SDS011;58876;51.994;4.472;2024-01-16T02:51:03;3054.70;;;3054.70;;
71174;SDS011;58876;51.994;4.472;2024-01-16T02:53:30;2897.61;;;2897.61;;
71174;SDS011;58876;51.994;4.472;2024-01-16T02:55:55;2406.53;;;2406.53;;
71174;SDS011;58876;51.994;4.472;2024-01-16T02:58:24;2275.82;;;2275.82;;
71174;SDS011;58876;51.994;4.472;2024-01-16T03:00:50;2520.14;;;2520.14;;
71174;SDS011;58876;51.994;4.472;2024-01-16T03:03:16;3096.68;;;3096.68;;
71174;SDS011;58876;51.994;4.472;2024-01-16T03:05:42;7538.91;;;7538.91;;
71174;SDS011;58876;51.994;4.472;2024-01-16T03:08:07;7768.34;;;7768.34;;
71174;SDS011;58876;51.994;4.472;2024-01-16T03:10:33;4014.49;;;4014.49;;
71174;SDS011;58876;51.994;4.472;2024-01-16T03:12:58;4460.98;;;4460.98;;
71174;SDS011;58876;51.994;4.472;2024-01-16T03:15:24;4859.82;;;4859.82;;
71174;SDS011;58876;51.994;4.472;2024-01-16T03:17:49;6644.39;;;6644.39;;
71174;SDS011;58876;51.994;4.472;2024-01-16T03:20:16;7686.71;;;7630.45;;
71174;SDS011;58876;51.994;4.472;2024-01-16T03:22:43;6217.30;;;6216.57;;
71174;SDS011;58876;51.994;4.472;2024-01-16T03:25:12;4380.32;;;4380.32;;
71174;SDS011;58876;51.994;4.472;2024-01-16T03:27:38;4907.71;;;4907.71;;
71174;SDS011;58876;51.994;4.472;2024-01-16T03:30:03;4701.69;;;4701.69;;
71174;SDS011;58876;51.994;4.472;2024-01-16T03:32:29;3774.03;;;3774.03;;
71174;SDS011;58876;51.994;4.472;2024-01-16T03:34:55;3140.59;;;3140.59;;
71174;SDS011;58876;51.994;4.472;2024-01-16T03:37:20;2987.97;;;2987.97;;
71174;SDS011;58876;51.994;4.472;2024-01-16T03:39:46;2901.70;;;2901.70;;
71174;SDS011;58876;51.994;4.472;2024-01-16T03:42:12;2759.19;;;2759.19;;
71174;SDS011;58876;51.994;4.472;2024-01-16T03:44:38;2812.04;;;2812.04;;
71174;SDS011;58876;51.994;4.472;2024-01-16T03:47:05;2999.49;;;2999.49;;
71174;SDS011;58876;51.994;4.472;2024-01-16T03:49:31;3317.82;;;3317.82;;
71174;SDS011;58876;51.994;4.472;2024-01-16T03:51:56;4560.68;;;4560.68;;
71174;SDS011;58876;51.994;4.472;2024-01-16T03:54:22;3894.96;;;3894.96;;
71174;SDS011;58876;51.994;4.472;2024-01-16T03:56:47;3750.59;;;3750.59;;
71174;SDS011;58876;51.994;4.472;2024-01-16T03:59:13;3609.74;;;3609.74;;
71174;SDS011;58876;51.994;4.472;2024-01-16T04:01:38;3756.20;;;3756.20;;
71174;SDS011;58876;51.994;4.472;2024-01-16T04:04:04;3566.73;;;3566.73;;
71174;SDS011;58876;51.994;4.472;2024-01-16T04:06:32;3427.55;;;3427.55;;
71174;SDS011;58876;51.994;4.472;2024-01-16T04:08:58;3735.35;;;3735.35;;
71174;SDS011;58876;51.994;4.472;2024-01-16T04:11:24;3728.87;;;3728.87;;
71174;SDS011;58876;51.994;4.472;2024-01-16T04:13:49;3166.70;;;3166.70;;
71174;SDS011;58876;51.994;4.472;2024-01-16T04:16:17;3542.45;;;3542.45;;
71174;SDS011;58876;51.994;4.472;2024-01-16T04:18:43;2900.39;;;2900.39;;
71174;SDS011;58876;51.994;4.472;2024-01-16T04:21:09;2127.80;;;2127.80;;
71174;SDS011;58876;51.994;4.472;2024-01-16T04:23:34;1958.46;;;1958.46;;
71174;SDS011;58876;51.994;4.472;2024-01-16T04:26:00;1784.54;;;1784.54;;
71174;SDS011;58876;51.994;4.472;2024-01-16T04:28:25;2082.31;;;2082.31;;
71174;SDS011;58876;51.994;4.472;2024-01-16T04:30:51;2541.76;;;2541.76;;
71174;SDS011;58876;51.994;4.472;2024-01-16T04:33:17;2737.75;;;2737.75;;
71174;SDS011;58876;51.994;4.472;2024-01-16T04:35:42;2934.46;;;2934.46;;
71174;SDS011;58876;51.994;4.472;2024-01-16T04:38:08;3277.43;;;3277.43;;
71174;SDS011;58876;51.994;4.472;2024-01-16T04:40:34;3469.22;;;3469.22;;
71174;SDS011;58876;51.994;4.472;2024-01-16T04:43:00;3485.00;;;3485.00;;
71174;SDS011;58876;51.994;4.472;2024-01-16T04:45:26;3362.03;;;3362.03;;
71174;SDS011;58876;51.994;4.472;2024-01-16T04:47:51;3447.69;;;3447.69;;
71174;SDS011;58876;51.994;4.472;2024-01-16T04:50:17;3295.74;;;3295.74;;
71174;SDS011;58876;51.994;4.472;2024-01-16T04:52:43;3181.03;;;3181.03;;
71174;SDS011;58876;51.994;4.472;2024-01-16T04:55:10;3098.45;;;3098.45;;
71174;SDS011;58876;51.994;4.472;2024-01-16T04:57:35;2984.66;;;2984.66;;
71174;SDS011;58876;51.994;4.472;2024-01-16T05:00:01;2963.94;;;2963.94;;
71174;SDS011;58876;51.994;4.472;2024-01-16T05:02:32;3130.20;;;3130.20;;
71174;SDS011;58876;51.994;4.472;2024-01-16T05:04:58;3165.61;;;3165.61;;
71174;SDS011;58876;51.994;4.472;2024-01-16T05:07:24;3284.27;;;3284.27;;
71174;SDS011;58876;51.994;4.472;2024-01-16T05:09:49;3445.22;;;3445.22;;
71174;SDS011;58876;51.994;4.472;2024-01-16T05:12:15;3473.68;;;3473.68;;
71174;SDS011;58876;51.994;4.472;2024-01-16T05:14:40;3264.03;;;3264.03;;
71174;SDS011;58876;51.994;4.472;2024-01-16T05:17:06;3540.56;;;3540.56;;
71174;SDS011;58876;51.994;4.472;2024-01-16T05:19:31;3960.20;;;3960.20;;
71174;SDS011;58876;51.994;4.472;2024-01-16T05:21:57;4273.69;;;4273.69;;
71174;SDS011;58876;51.994;4.472;2024-01-16T05:24:22;4181.00;;;4181.00;;
71174;SDS011;58876;51.994;4.472;2024-01-16T05:26:48;4187.14;;;4187.14;;
71174;SDS011;58876;51.994;4.472;2024-01-16T05:29:18;4149.56;;;4149.56;;
71174;SDS011;58876;51.994;4.472;2024-01-16T05:31:43;4144.44;;;4144.44;;
71174;SDS011;58876;51.994;4.472;2024-01-16T05:34:10;4194.87;;;4194.87;;
71174;SDS011;58876;51.994;4.472;2024-01-16T05:36:35;4240.57;;;4240.57;;
71174;SDS011;58876;51.994;4.472;2024-01-16T05:39:01;4273.32;;;4273.32;;
71174;SDS011;58876;51.994;4.472;2024-01-16T05:41:31;4259.45;;;4259.45;;
71174;SDS011;58876;51.994;4.472;2024-01-16T05:43:58;4297.66;;;4297.66;;
71174;SDS011;58876;51.994;4.472;2024-01-16T05:46:23;4193.71;;;4193.71;;
71174;SDS011;58876;51.994;4.472;2024-01-16T05:48:49;4024.35;;;4024.35;;
71174;SDS011;58876;51.994;4.472;2024-01-16T05:51:14;3770.88;;;3770.88;;
71174;SDS011;58876;51.994;4.472;2024-01-16T05:53:41;3885.03;;;3885.03;;
71174;SDS011;58876;51.994;4.472;2024-01-16T05:56:06;4165.09;;;4165.09;;
71174;SDS011;58876;51.994;4.472;2024-01-16T05:58:33;4346.92;;;4346.92;;
71174;SDS011;58876;51.994;4.472;2024-01-16T06:01:04;4285.53;;;4285.53;;
71174;SDS011;58876;51.994;4.472;2024-01-16T06:03:30;4081.05;;;4081.05;;
71174;SDS011;58876;51.994;4.472;2024-01-16T06:05:55;3943.05;;;3943.05;;
71174;SDS011;58876;51.994;4.472;2024-01-16T06:08:21;3978.55;;;3978.55;;
71174;SDS011;58876;51.994;4.472;2024-01-16T06:10:46;3808.61;;;3808.61;;
71174;SDS011;58876;51.994;4.472;2024-01-16T06:13:12;3883.20;;;3883.20;;
71174;SDS011;58876;51.994;4.472;2024-01-16T06:15:37;4470.19;;;4470.19;;
71174;SDS011;58876;51.994;4.472;2024-01-16T06:18:03;4526.02;;;4526.02;;
71174;SDS011;58876;51.994;4.472;2024-01-16T06:20:29;4491.67;;;4491.67;;
71174;SDS011;58876;51.994;4.472;2024-01-16T06:22:56;4350.18;;;4350.18;;
71174;SDS011;58876;51.994;4.472;2024-01-16T06:25:21;4139.46;;;4139.46;;
71174;SDS011;58876;51.994;4.472;2024-01-16T06:27:47;4134.00;;;4134.00;;
71174;SDS011;58876;51.994;4.472;2024-01-16T06:30:13;3949.58;;;3949.58;;
71174;SDS011;58876;51.994;4.472;2024-01-16T06:32:42;3857.96;;;3857.96;;
71174;SDS011;58876;51.994;4.472;2024-01-16T06:35:07;3818.71;;;3818.71;;
71174;SDS011;58876;51.994;4.472;2024-01-16T06:37:33;4021.73;;;4021.73;;
71174;SDS011;58876;51.994;4.472;2024-01-16T06:39:58;3972.91;;;3972.91;;
71174;SDS011;58876;51.994;4.472;2024-01-16T06:42:24;4028.14;;;4028.14;;
71174;SDS011;58876;51.994;4.472;2024-01-16T06:44:50;4347.97;;;4347.97;;
71174;SDS011;58876;51.994;4.472;2024-01-16T06:47:15;4193.77;;;4193.77;;
71174;SDS011;58876;51.994;4.472;2024-01-16T06:49:40;3916.04;;;3916.04;;
71174;SDS011;58876;51.994;4.472;2024-01-16T06:52:07;3614.66;;;3614.66;;
71174;SDS011;58876;51.994;4.472;2024-01-16T06:54:33;3630.96;;;3630.96;;
71174;SDS011;58876;51.994;4.472;2024-01-16T06:56:59;3614.58;;;3614.58;;
71174;SDS011;58876;51.994;4.472;2024-01-16T06:59:24;3644.50;;;3644.50;;
71174;SDS011;58876;51.994;4.472;2024-01-16T07:01:49;3477.01;;;3477.01;;
71174;SDS011;58876;51.994;4.472;2024-01-16T07:04:15;3430.23;;;3430.23;;
71174;SDS011;58876;51.994;4.472;2024-01-16T07:06:40;4057.02;;;4057.02;;
71174;SDS011;58876;51.994;4.472;2024-01-16T07:09:06;4024.91;;;4024.91;;
71174;SDS011;58876;51.994;4.472;2024-01-16T07:11:32;3855.56;;;3855.56;;
71174;SDS011;58876;51.994;4.472;2024-01-16T07:13:58;4127.57;;;4127.57;;
71174;SDS011;58876;51.994;4.472;2024-01-16T07:16:23;4143.92;;;4143.92;;
71174;SDS011;58876;51.994;4.472;2024-01-16T07:18:48;4396.38;;;4381.78;;
71174;SDS011;58876;51.994;4.472;2024-01-16T07:21:18;4082.06;;;4081.71;;
71174;SDS011;58876;51.994;4.472;2024-01-16T07:23:43;3805.65;;;3805.65;;
71174;SDS011;58876;51.994;4.472;2024-01-16T07:26:09;3838.26;;;3838.26;;
71174;SDS011;58876;51.994;4.472;2024-01-16T07:28:35;4401.85;;;4401.85;;
71174;SDS011;58876;51.994;4.472;2024-01-16T07:31:00;4426.57;;;4426.57;;
71174;SDS011;58876;51.994;4.472;2024-01-16T07:33:26;4003.52;;;4003.52;;
71174;SDS011;58876;51.994;4.472;2024-01-16T07:35:52;4295.45;;;4295.45;;
71174;SDS011;58876;51.994;4.472;2024-01-16T07:38:17;5771.57;;;5771.25;;
71174;SDS011;58876;51.994;4.472;2024-01-16T07:40:43;5043.93;;;5043.93;;
71174;SDS011;58876;51.994;4.472;2024-01-16T07:43:08;3974.61;;;3974.61;;
71174;SDS011;58876;51.994;4.472;2024-01-16T07:45:34;3683.14;;;3683.14;;
71174;SDS011;58876;51.994;4.472;2024-01-16T07:47:59;3644.46;;;3644.46;;
71174;SDS011;58876;51.994;4.472;2024-01-16T07:50:25;3523.35;;;3523.35;;
71174;SDS011;58876;51.994;4.472;2024-01-16T07:52:50;3310.14;;;3310.14;;
71174;SDS011;58876;51.994;4.472;2024-01-16T07:55:16;3215.37;;;3215.37;;
71174;SDS011;58876;51.994;4.472;2024-01-16T07:57:43;2892.33;;;2892.33;;
71174;SDS011;58876;51.994;4.472;2024-01-16T08:00:09;3053.42;;;3053.42;;
71174;SDS011;58876;51.994;4.472;2024-01-16T08:02:37;3366.37;;;3366.37;;
71174;SDS011;58876;51.994;4.472;2024-01-16T08:05:03;3375.90;;;3375.90;;
71174;SDS011;58876;51.994;4.472;2024-01-16T08:07:29;3326.09;;;3326.09;;
71174;SDS011;58876;51.994;4.472;2024-01-16T08:09:55;3251.68;;;3251.68;;
71174;SDS011;58876;51.994;4.472;2024-01-16T08:12:21;3327.77;;;3327.77;;
71174;SDS011;58876;51.994;4.472;2024-01-16T08:14:47;3763.33;;;3763.33;;
71174;SDS011;58876;51.994;4.472;2024-01-16T08:17:12;3564.39;;;3564.39;;
71174;SDS011;58876;51.994;4.472;2024-01-16T08:19:38;3429.44;;;3429.44;;
71174;SDS011;58876;51.994;4.472;2024-01-16T08:22:03;3369.64;;;3369.64;;
71174;SDS011;58876;51.994;4.472;2024-01-16T08:24:29;3288.31;;;3288.31;;
71174;SDS011;58876;51.994;4.472;2024-01-16T08:26:55;3425.43;;;3425.43;;
71174;SDS011;58876;51.994;4.472;2024-01-16T08:29:23;3411.84;;;3411.84;;
71174;SDS011;58876;51.994;4.472;2024-01-16T08:31:49;3265.02;;;3265.02;;
71174;SDS011;58876;51.994;4.472;2024-01-16T08:34:17;3188.32;;;3188.32;;
71174;SDS011;58876;51.994;4.472;2024-01-16T08:36:43;3410.78;;;3410.78;;
71174;SDS011;58876;51.994;4.472;2024-01-16T08:39:11;3448.96;;;3448.96;;
71174;SDS011;58876;51.994;4.472;2024-01-16T08:41:37;3835.68;;;3835.68;;
71174;SDS011;58876;51.994;4.472;2024-01-16T08:44:02;3522.00;;;3522.00;;
71174;SDS011;58876;51.994;4.472;2024-01-16T08:46:28;3214.82;;;3214.82;;
71174;SDS011;58876;51.994;4.472;2024-01-16T08:48:53;3067.02;;;3067.02;;
71174;SDS011;58876;51.994;4.472;2024-01-16T08:51:19;3358.75;;;3358.75;;
71174;SDS011;58876;51.994;4.472;2024-01-16T08:53:48;3731.82;;;3731.82;;
71174;SDS011;58876;51.994;4.472;2024-01-16T08:56:13;4635.09;;;4635.09;;
71174;SDS011;58876;51.994;4.472;2024-01-16T08:58:42;4770.34;;;4770.34;;
71174;SDS011;58876;51.994;4.472;2024-01-16T09:01:08;5051.17;;;5051.17;;
71174;SDS011;58876;51.994;4.472;2024-01-16T09:03:35;4761.56;;;4761.56;;
71174;SDS011;58876;51.994;4.472;2024-01-16T09:06:01;4266.36;;;4266.36;;
71174;SDS011;58876;51.994;4.472;2024-01-16T09:08:27;4235.25;;;4235.25;;
71174;SDS011;58876;51.994;4.472;2024-01-16T09:10:53;4323.96;;;4323.96;;
71174;SDS011;58876;51.994;4.472;2024-01-16T09:13:20;4345.84;;;4345.84;;
71174;SDS011;58876;51.994;4.472;2024-01-16T09:15:46;4172.70;;;4172.70;;
71174;SDS011;58876;51.994;4.472;2024-01-16T09:18:13;5041.72;;;5041.72;;
71174;SDS011;58876;51.994;4.472;2024-01-16T09:20:39;5273.77;;;5273.77;;
71174;SDS011;58876;51.994;4.472;2024-01-16T09:23:04;5271.63;;;5271.63;;
71174;SDS011;58876;51.994;4.472;2024-01-16T09:25:30;5204.78;;;5204.78;;
71174;SDS011;58876;51.994;4.472;2024-01-16T09:27:55;4438.80;;;4438.80;;
71174;SDS011;58876;51.994;4.472;2024-01-16T09:30:21;4263.54;;;4263.54;;
71174;SDS011;58876;51.994;4.472;2024-01-16T09:32:50;4261.04;;;4261.04;;
71174;SDS011;58876;51.994;4.472;2024-01-16T09:35:16;4245.87;;;4245.87;;
71174;SDS011;58876;51.994;4.472;2024-01-16T09:37:41;4367.81;;;4367.81;;
71174;SDS011;58876;51.994;4.472;2024-01-16T09:40:07;4336.39;;;4336.39;;
71174;SDS011;58876;51.994;4.472;2024-01-16T09:42:32;4106.21;;;4106.21;;
71174;SDS011;58876;51.994;4.472;2024-01-16T09:45:00;3808.84;;;3808.84;;
71174;SDS011;58876;51.994;4.472;2024-01-16T09:47:27;3891.74;;;3891.74;;
71174;SDS011;58876;51.994;4.472;2024-01-16T09:49:57;4878.13;;;4878.13;;
71174;SDS011;58876;51.994;4.472;2024-01-16T09:52:25;4649.36;;;4649.36;;
71174;SDS011;58876;51.994;4.472;2024-01-16T09:54:51;4609.15;;;4609.15;;
71174;SDS011;58876;51.994;4.472;2024-01-16T09:57:18;4089.04;;;4089.04;;
71174;SDS011;58876;51.994;4.472;2024-01-16T09:59:48;3894.45;;;3894.45;;
71174;SDS011;58876;51.994;4.472;2024-01-16T10:02:14;3953.50;;;3953.50;;
71174;SDS011;58876;51.994;4.472;2024-01-16T10:04:42;3838.22;;;3838.22;;
71174;SDS011;58876;51.994;4.472;2024-01-16T10:07:09;3690.57;;;3690.57;;
71174;SDS011;58876;51.994;4.472;2024-01-16T10:09:40;3846.88;;;3846.88;;
71174;SDS011;58876;51.994;4.472;2024-01-16T10:12:06;3651.42;;;3651.42;;
71174;SDS011;58876;51.994;4.472;2024-01-16T10:14:32;3684.92;;;3684.92;;
71174;SDS011;58876;51.994;4.472;2024-01-16T10:19:28;3702.39;;;3702.39;;
71174;SDS011;58876;51.994;4.472;2024-01-16T10:22:01;2826.30;;;2826.30;;
71174;SDS011;58876;51.994;4.472;2024-01-16T10:24:28;2391.40;;;2391.40;;
71174;SDS011;58876;51.994;4.472;2024-01-16T10:27:00;2570.74;;;2570.74;;
71174;SDS011;58876;51.994;4.472;2024-01-16T10:29:28;2211.21;;;2211.21;;
71174;SDS011;58876;51.994;4.472;2024-01-16T10:31:57;2151.96;;;2151.96;;
71174;SDS011;58876;51.994;4.472;2024-01-16T10:34:23;2271.33;;;2271.33;;
71174;SDS011;58876;51.994;4.472;2024-01-16T10:36:50;1893.84;;;1893.84;;
71174;SDS011;58876;51.994;4.472;2024-01-16T10:39:17;2378.37;;;2378.37;;
71174;SDS011;58876;51.994;4.472;2024-01-16T10:42:01;2457.63;;;2457.63;;
71174;SDS011;58876;51.994;4.472;2024-01-16T10:44:36;1811.25;;;1811.25;;
71174;SDS011;58876;51.994;4.472;2024-01-16T10:47:09;1847.84;;;1847.84;;
71174;SDS011;58876;51.994;4.472;2024-01-16T10:49:37;1969.01;;;1969.01;;
71174;SDS011;58876;51.994;4.472;2024-01-16T10:52:03;1608.88;;;1608.88;;
71174;SDS011;58876;51.994;4.472;2024-01-16T10:54:36;1748.25;;;1748.25;;
71174;SDS011;58876;51.994;4.472;2024-01-16T10:57:05;1670.56;;;1670.56;;
71174;SDS011;58876;51.994;4.472;2024-01-16T10:59:34;1712.44;;;1712.44;;
71174;SDS011;58876;51.994;4.472;2024-01-16T11:02:08;1428.95;;;1428.95;;
71174;SDS011;58876;51.994;4.472;2024-01-16T11:04:42;1371.25;;;1371.25;;
71174;SDS011;58876;51.994;4.472;2024-01-16T11:07:09;1290.98;;;1290.98;;
71174;SDS011;58876;51.994;4.472;2024-01-16T11:09:35;1167.18;;;1167.18;;
71174;SDS011;58876;51.994;4.472;2024-01-16T11:12:01;1521.58;;;1521.58;;
71174;SDS011;58876;51.994;4.472;2024-01-16T11:14:28;2003.14;;;2003.14;;
71174;SDS011;58876;51.994;4.472;2024-01-16T11:17:00;1915.45;;;1915.45;;
71174;SDS011;58876;51.994;4.472;2024-01-16T11:19:29;1926.29;;;1926.29;;
71174;SDS011;58876;51.994;4.472;2024-01-16T11:21:58;1668.09;;;1668.09;;
71174;SDS011;58876;51.994;4.472;2024-01-16T11:24:25;1823.57;;;1823.57;;
71174;SDS011;58876;51.994;4.472;2024-01-16T11:26:50;1487.53;;;1487.53;;
71174;SDS011;58876;51.994;4.472;2024-01-16T11:31:54;1330.69;;;1330.69;;
71174;SDS011;58876;51.994;4.472;2024-01-16T11:37:28;1192.55;;;1192.55;;
71174;SDS011;58876;51.994;4.472;2024-01-16T11:42:48;1479.96;;;1479.96;;
71174;SDS011;58876;51.994;4.472;2024-01-16T11:48:07;1397.71;;;1397.71;;
71174;SDS011;58876;51.994;4.472;2024-01-16T11:50:37;1288.08;;;1288.08;;
71174;SDS011;58876;51.994;4.472;2024-01-16T11:53:03;1156.15;;;1156.15;;
71174;SDS011;58876;51.994;4.472;2024-01-16T11:55:30;1280.70;;;1280.70;;
71174;SDS011;58876;51.994;4.472;2024-01-16T11:58:20;1880.22;;;1880.22;;
71174;SDS011;58876;51.994;4.472;2024-01-16T12:00:55;2136.56;;;2136.56;;
71174;SDS011;58876;51.994;4.472;2024-01-16T12:03:22;2155.77;;;2155.77;;
71174;SDS011;58876;51.994;4.472;2024-01-16T12:05:57;2197.62;;;2197.62;;
71174;SDS011;58876;51.994;4.472;2024-01-16T12:08:24;1768.15;;;1768.15;;
71174;SDS011;58876;51.994;4.472;2024-01-16T12:10:49;1216.68;;;1216.68;;
71174;SDS011;58876;51.994;4.472;2024-01-16T12:13:15;1445.41;;;1445.41;;
71174;SDS011;58876;51.994;4.472;2024-01-16T12:15:41;1491.30;;;1491.30;;
71174;SDS011;58876;51.994;4.472;2024-01-16T12:18:07;1271.24;;;1271.24;;
71174;SDS011;58876;51.994;4.472;2024-01-16T12:20:34;1658.34;;;1658.34;;
71174;SDS011;58876;51.994;4.472;2024-01-16T12:23:02;1905.77;;;1905.77;;
71174;SDS011;58876;51.994;4.472;2024-01-16T12:25:29;1691.57;;;1691.57;;
71174;SDS011;58876;51.994;4.472;2024-01-16T12:30:23;975.98;;;975.98;;
71174;SDS011;58876;51.994;4.472;2024-01-16T12:32:50;718.93;;;718.93;;
71174;SDS011;58876;51.994;4.472;2024-01-16T12:35:21;840.08;;;840.08;;
71174;SDS011;58876;51.994;4.472;2024-01-16T12:38:00;977.50;;;977.50;;
71174;SDS011;58876;51.994;4.472;2024-01-16T12:40:26;901.21;;;901.21;;
71174;SDS011;58876;51.994;4.472;2024-01-16T12:42:53;918.25;;;918.25;;
71174;SDS011;58876;51.994;4.472;2024-01-16T12:45:19;877.02;;;877.02;;
71174;SDS011;58876;51.994;4.472;2024-01-16T12:47:54;1021.52;;;1021.52;;
71174;SDS011;58876;51.994;4.472;2024-01-16T12:50:24;1073.19;;;1073.19;;
71174;SDS011;58876;51.994;4.472;2024-01-16T12:53:04;945.54;;;945.54;;
71174;SDS011;58876;51.994;4.472;2024-01-16T12:55:35;821.91;;;821.91;;
71174;SDS011;58876;51.994;4.472;2024-01-16T12:58:21;706.89;;;706.89;;
71174;SDS011;58876;51.994;4.472;2024-01-16T13:00:53;709.30;;;709.30;;
71174;SDS011;58876;51.994;4.472;2024-01-16T13:03:23;572.48;;;572.48;;
71174;SDS011;58876;51.994;4.472;2024-01-16T13:05:55;493.05;;;493.05;;
71174;SDS011;58876;51.994;4.472;2024-01-16T13:08:22;644.62;;;644.62;;
71174;SDS011;58876;51.994;4.472;2024-01-16T13:11:03;675.07;;;675.07;;
71174;SDS011;58876;51.994;4.472;2024-01-16T13:13:30;831.28;;;831.28;;
71174;SDS011;58876;51.994;4.472;2024-01-16T13:15:56;680.22;;;680.22;;
71174;SDS011;58876;51.994;4.472;2024-01-16T13:18:23;824.47;;;824.47;;
71174;SDS011;58876;51.994;4.472;2024-01-16T13:20:51;923.09;;;923.09;;
71174;SDS011;58876;51.994;4.472;2024-01-16T13:23:18;781.23;;;781.23;;
71174;SDS011;58876;51.994;4.472;2024-01-16T13:25:48;591.65;;;591.65;;
71174;SDS011;58876;51.994;4.472;2024-01-16T13:28:18;442.18;;;442.18;;
71174;SDS011;58876;51.994;4.472;2024-01-16T13:30:48;449.04;;;449.04;;
71174;SDS011;58876;51.994;4.472;2024-01-16T13:33:14;453.87;;;453.87;;
71174;SDS011;58876;51.994;4.472;2024-01-16T13:35:42;423.40;;;423.40;;
71174;SDS011;58876;51.994;4.472;2024-01-16T13:38:09;498.70;;;498.70;;
71174;SDS011;58876;51.994;4.472;2024-01-16T13:40:36;652.54;;;652.54;;
71174;SDS011;58876;51.994;4.472;2024-01-16T13:43:04;563.76;;;563.76;;
71174;SDS011;58876;51.994;4.472;2024-01-16T13:45:32;626.84;;;626.84;;
71174;SDS011;58876;51.994;4.472;2024-01-16T13:47:58;571.93;;;571.93;;
71174;SDS011;58876;51.994;4.472;2024-01-16T13:50:26;647.30;;;647.30;;